Time;durP1;ratioP1;P1;durP2;ratioP2;P2;SDS_P1;SDS_P2;PMS_P1;PMS_P2;Temp;Humidity;BMP_temperature;BMP_pressure;BME280_temperature;BME280_humidity;BME280_pressure;Samples;Min_cycle;Max_cycle;Signal;HPM_P1;HPM_P2
2022/06/18 00:05:00;;;;;;;;;;;;;;;21.7;44.0459;101730.7;;;;-83
2022/06/18 00:05:19;;;;;;;6.4;3.4;;;;;;;;;;;;;-83
2022/06/18 00:10:04;;;;;;;;;;;;;;;21.69;44.58496;101725.4;;;;-84
2022/06/18 00:14:59;;;;;;;;;;;;;;;21.67;44.94922;101734.8;;;;-84
2022/06/18 00:20:05;;;;;;;;;;;;;;;21.66;45.0752;101736.6;;;;-83
2022/06/18 00:25:00;;;;;;;;;;;;;;;21.63;44.86426;101748.2;;;;-84
2022/06/18 00:30:01;;;;;;;;;;;;;;;21.6;44.82813;101752.5;;;;-82
2022/06/18 00:34:59;;;;;;;;;;;;;;;21.57;44.8252;101755.6;;;;-83
2022/06/18 00:35:20;;;;;;;6.4;3.3;;;;;;;;;;;;;-82
2022/06/18 00:40:04;;;;;;;;;;;;;;;21.52;44.72852;101751.3;;;;-83
2022/06/18 00:45:12;;;;;;;;;;;;;;;21.46;45.45703;101746.5;;;;-84
2022/06/18 00:55:10;;;;;;;;;;;;;;;21.33;45.27051;101738.5;;;;-84
2022/06/18 01:00:08;;;;;;;;;;;;;;;21.27;45.18555;101746.4;;;;-83
2022/06/18 01:04:59;;;;;;;;;;;;;;;21.19;44.9248;101744.7;;;;-83
2022/06/18 01:05:28;;;;;;;8.5;3.7;;;;;;;;;;;;;-84
2022/06/18 01:10:00;;;;;;;;;;;;;;;21.11;44.99805;101739.6;;;;-83
2022/06/18 01:15:05;;;;;;;;;;;;;;;21.03;45.06836;101736.9;;;;-84
2022/06/18 01:20:00;;;;;;;;;;;;;;;20.98;45.09863;101745.4;;;;-83
2022/06/18 01:25:00;;;;;;;;;;;;;;;20.89;45.05371;101737.5;;;;-82
2022/06/18 01:29:59;;;;;;;;;;;;;;;20.81;45.26367;101734.3;;;;-84
2022/06/18 01:34:59;;;;;;;;;;;;;;;20.71;45.27734;101726.8;;;;-84
2022/06/18 01:35:29;;;;;;;8.3;4.1;;;;;;;;;;;;;-84
2022/06/18 01:40:00;;;;;;;;;;;;;;;20.64;45.53223;101724.4;;;;-83
2022/06/18 01:45:01;;;;;;;;;;;;;;;20.56;45.66113;101725;;;;-83
2022/06/18 01:50:03;;;;;;;;;;;;;;;20.48;45.6875;101717.2;;;;-81
2022/06/18 01:55:01;;;;;;;;;;;;;;;20.4;45.88574;101722.3;;;;-83
2022/06/18 02:00:02;;;;;;;;;;;;;;;20.32;46.31152;101727.1;;;;-84
2022/06/18 02:05:00;;;;;;;;;;;;;;;20.25;46.49805;101728.1;;;;-83
2022/06/18 02:05:33;;;;;;;7.9;3.8;;;;;;;;;;;;;-83
2022/06/18 02:10:02;;;;;;;;;;;;;;;20.17;46.41016;101731;;;;-83
2022/06/18 02:15:01;;;;;;;;;;;;;;;20.09;46.6748;101730.6;;;;-84
2022/06/18 02:20:04;;;;;;;;;;;;;;;20.03;46.87598;101728.8;;;;-81
2022/06/18 02:24:59;;;;;;;;;;;;;;;19.94;47.09473;101727.5;;;;-83
2022/06/18 02:30:02;;;;;;;;;;;;;;;19.87;47.13281;101731.2;;;;-83
2022/06/18 02:35:00;;;;;;;;;;;;;;;19.79;47.32813;101738.3;;;;-82
2022/06/18 02:35:33;;;;;;;8.4;4.1;;;;;;;;;;;;;-83
2022/06/18 02:40:02;;;;;;;;;;;;;;;19.71;47.8457;101739.3;;;;-82
2022/06/18 02:45:00;;;;;;;;;;;;;;;19.66;48.01172;101734.5;;;;-82
2022/06/18 02:50:01;;;;;;;;;;;;;;;19.59;48.1748;101739.7;;;;-85
2022/06/18 02:55:05;;;;;;;;;;;;;;;19.53;48.40723;101746.2;;;;-83
2022/06/18 02:59:59;;;;;;;;;;;;;;;19.49;48.3125;101752.3;;;;-84
2022/06/18 03:04:59;;;;;;;;;;;;;;;19.44;48.22754;101752.8;;;;-83
2022/06/18 03:05:34;;;;;;;11.1;4.6;;;;;;;;;;;;;-82
2022/06/18 03:15:02;;;;;;;;;;;;;;;19.31;48.42969;101770.2;;;;-83
2022/06/18 03:20:02;;;;;;;;;;;;;;;19.25;48.59473;101770.7;;;;-81
2022/06/18 03:25:03;;;;;;;;;;;;;;;19.2;48.78223;101772.5;;;;-83
2022/06/18 03:30:04;;;;;;;;;;;;;;;19.17;48.80078;101771.6;;;;-83
2022/06/18 03:34:59;;;;;;;;;;;;;;;19.12;48.79688;101774.3;;;;-82
2022/06/18 03:35:37;;;;;;;11.6;4.8;;;;;;;;;;;;;-82
2022/06/18 03:40:09;;;;;;;;;;;;;;;19.08;48.92871;101779.8;;;;-82
2022/06/18 03:44:59;;;;;;;;;;;;;;;19.05;48.99414;101784.9;;;;-82
2022/06/18 03:50:06;;;;;;;;;;;;;;;19;48.99902;101786.9;;;;-84
2022/06/18 03:55:01;;;;;;;;;;;;;;;18.96;49.14258;101788.5;;;;-83
2022/06/18 04:00:01;;;;;;;;;;;;;;;18.94;49.35645;101781.6;;;;-82
2022/06/18 04:05:04;;;;;;;;;;;;;;;18.92;49.42383;101786.3;;;;-83
2022/06/18 04:05:43;;;;;;;9.9;4.8;;;;;;;;;;;;;-82
2022/06/18 04:10:06;;;;;;;;;;;;;;;18.92;49.53711;101787.4;;;;-83
2022/06/18 04:14:59;;;;;;;;;;;;;;;18.92;49.51367;101790;;;;-83
2022/06/18 04:20:01;;;;;;;;;;;;;;;18.9;49.5459;101783.6;;;;-83
2022/06/18 04:24:59;;;;;;;;;;;;;;;18.89;49.49805;101783.7;;;;-84
2022/06/18 04:30:01;;;;;;;;;;;;;;;18.91;49.5459;101780.5;;;;-85
2022/06/18 04:35:02;;;;;;;;;;;;;;;18.93;49.43555;101779.4;;;;-85
2022/06/18 04:35:43;;;;;;;10.7;4.8;;;;;;;;;;;;;-84
2022/06/18 04:40:04;;;;;;;;;;;;;;;18.95;49.3584;101774.9;;;;-83
2022/06/18 04:45:06;;;;;;;;;;;;;;;18.99;49.29395;101773;;;;-83
2022/06/18 04:50:05;;;;;;;;;;;;;;;19.05;49.16406;101773.7;;;;-85
2022/06/18 04:55:00;;;;;;;;;;;;;;;19.12;49.07031;101775.3;;;;-83
2022/06/18 05:00:00;;;;;;;;;;;;;;;19.2;48.92969;101776.2;;;;-82
2022/06/18 05:05:00;;;;;;;;;;;;;;;19.26;48.91406;101778.9;;;;-85
2022/06/18 05:05:51;;;;;;;11.4;4.7;;;;;;;;;;;;;-85
2022/06/18 05:10:03;;;;;;;;;;;;;;;19.35;48.93457;101781.1;;;;-85
2022/06/18 05:15:03;;;;;;;;;;;;;;;19.46;48.70801;101784.2;;;;-82
2022/06/18 05:19:59;;;;;;;;;;;;;;;19.59;48.7334;101779.7;;;;-84
2022/06/18 05:25:00;;;;;;;;;;;;;;;19.82;48.56543;101792.9;;;;-84
2022/06/18 05:30:05;;;;;;;;;;;;;;;20.2;48.29785;101795;;;;-83
2022/06/18 05:35:03;;;;;;;;;;;;;;;20.65;47.71777;101791;;;;-84
2022/06/18 05:35:50;;;;;;;7.9;4.3;;;;;;;;;;;;;-81
2022/06/18 05:39:59;;;;;;;;;;;;;;;21.09;46.95313;101799.7;;;;-84
2022/06/18 05:44:59;;;;;;;;;;;;;;;21.53;46.41406;101799.8;;;;-83
2022/06/18 05:50:01;;;;;;;;;;;;;;;21.95;45.96484;101798.2;;;;-83
2022/06/18 05:55:01;;;;;;;;;;;;;;;22.42;45.18652;101799.5;;;;-82
2022/06/18 06:00:02;;;;;;;;;;;;;;;22.82;44.59375;101806.2;;;;-82
2022/06/18 06:05:02;;;;;;;;;;;;;;;23.2;44.16016;101810.3;;;;-83
2022/06/18 06:05:53;;;;;;;8.4;4.2;;;;;;;;;;;;;-83
2022/06/18 06:15:01;;;;;;;;;;;;;;;23.97;43.08203;101808.5;;;;-83
2022/06/18 06:20:04;;;;;;;;;;;;;;;24.33;42.69043;101809.5;;;;-83
2022/06/18 06:25:03;;;;;;;;;;;;;;;24.74;42.29004;101809.5;;;;-83
2022/06/18 06:30:01;;;;;;;;;;;;;;;25.12;41.93262;101819.7;;;;-85
2022/06/18 06:35:06;;;;;;;;;;;;;;;25.49;41.55078;101822.3;;;;-84
2022/06/18 06:35:58;;;;;;;7.5;3.5;;;;;;;;;;;;;-83
2022/06/18 06:40:17;;;;;;;;;;;;;;;25.88;41.19238;101825.4;;;;-83
2022/06/18 06:45:21;;;;;;;;;;;;;;;26.26;40.65918;101829;;;;-84
2022/06/18 06:50:20;;;;;;;;;;;;;;;26.62;40.34277;101830.7;;;;-83
2022/06/18 07:00:01;;;;;;;;;;;;;;;27.28;39.80859;101834.8;;;;-82
2022/06/18 07:05:12;;;;;;;;;;;;;;;27.59;39.60352;101833.3;;;;-83
2022/06/18 07:05:58;;;;;;;6.3;2.8;;;;;;;;;;;;;-83
2022/06/18 07:10:04;;;;;;;;;;;;;;;27.84;39.40332;101835.4;;;;-83
2022/06/18 07:15:13;;;;;;;;;;;;;;;28.08;39.20313;101855.5;;;;-80
2022/06/18 07:30:20;;;;;;;;;;;;;;;28.76;38.60938;101856.6;;;;-83
2022/06/18 07:35:09;;;;;;;;;;;;;;;29.01;38.30371;101867.1;;;;-84
2022/06/18 07:36:03;;;;;;;6.6;2.3;;;;;;;;;;;;;-85
2022/06/18 07:40:03;;;;;;;;;;;;;;;29.28;38.23242;101862.5;;;;-86
2022/06/18 07:45:05;;;;;;;;;;;;;;;29.49;38.02734;101865.5;;;;-84
2022/06/18 07:50:02;;;;;;;;;;;;;;;29.72;37.70801;101869.5;;;;-84
2022/06/18 07:55:05;;;;;;;;;;;;;;;29.92;37.50098;101859.8;;;;-84
2022/06/18 08:00:08;;;;;;;;;;;;;;;30.13;37.26074;101857.6;;;;-81
2022/06/18 08:05:03;;;;;;;;;;;;;;;30.36;36.92871;101856.1;;;;-82
2022/06/18 08:06:10;;;;;;;5.3;2;;;;;;;;;;;;;-86
2022/06/18 08:09:59;;;;;;;;;;;;;;;30.53;36.74414;101850.6;;;;-84
2022/06/18 08:20:02;;;;;;;;;;;;;;;30.96;36.19141;101825.6;;;;-82
2022/06/18 08:24:59;;;;;;;;;;;;;;;31.19;35.92773;101825.7;;;;-82
2022/06/18 08:29:59;;;;;;;;;;;;;;;31.41;35.60449;101823.5;;;;-85
2022/06/18 08:35:02;;;;;;;;;;;;;;;31.65;35.36328;101831.3;;;;-83
2022/06/18 08:36:14;;;;;;;3.5;1.7;;;;;;;;;;;;;-82
2022/06/18 08:40:00;;;;;;;;;;;;;;;31.88;35.09961;101838.6;;;;-88
2022/06/18 08:45:15;;;;;;;;;;;;;;;32.14;34.73047;101840.8;;;;-84
2022/06/18 08:50:13;;;;;;;;;;;;;;;32.35;34.47656;101838.8;;;;-84
2022/06/18 08:55:09;;;;;;;;;;;;;;;32.57;34.19824;101832.5;;;;-79
2022/06/18 09:00:16;;;;;;;;;;;;;;;32.75;33.95215;101834;;;;-84
2022/06/18 09:10:40;;;;;;;;;;;;;;;33.4;33.32715;101822.7;;;;-81
2022/06/18 09:17:10;;;;;;;;;;;;;;;33.46;33.14258;101845.6;;;;-84
2022/06/18 09:21:58;;;;;;;;;;;;;;;33.66;33.00391;101850.7;;;;-85
2022/06/18 09:27:03;;;;;;;;;;;;;;;33.89;32.77148;101847;;;;-84
2022/06/18 09:31:57;;;;;;;;;;;;;;;34.08;32.58398;101838.2;;;;-86
2022/06/18 09:36:28;;;;;;;3;1.3;;;;;;;;;;;;;-85
2022/06/18 09:37:01;;;;;;;;;;;;;;;34.29;32.35156;101840.4;;;;-84
2022/06/18 09:42:00;;;;;;;;;;;;;;;34.46;32.19629;101833;;;;-85
2022/06/18 09:46:55;;;;;;;;;;;;;;;34.64;31.97266;101842;;;;-86
2022/06/18 09:51:54;;;;;;;;;;;;;;;34.83;31.7959;101832;;;;-83
2022/06/18 09:57:02;;;;;;;;;;;;;;;35.06;31.56348;101827.2;;;;-84
2022/06/18 10:01:59;;;;;;;;;;;;;;;35.27;31.25684;101804.6;;;;-83
2022/06/18 10:07:02;;;;;;;;;;;;;;;35.43;30.93457;101789.6;;;;-84
2022/06/18 10:11:57;;;;;;;;;;;;;;;35.81;30.63965;101793.2;;;;-84
2022/06/18 10:17:07;;;;;;;;;;;;;;;36.02;30.38086;101792;;;;-81
2022/06/18 10:22:00;;;;;;;;;;;;;;;36.25;30.21777;101784.9;;;;-81
2022/06/18 10:32:01;;;;;;;;;;;;;;;36.6;29.84668;101769.3;;;;-83
2022/06/18 10:36:40;;;;;;;2.1;1;;;;;;;;;;;;;-85
2022/06/18 10:36:56;;;;;;;;;;;;;;;36.73;29.9873;101773.6;;;;-86
2022/06/18 10:41:59;;;;;;;;;;;;;;;36.94;29.92871;101785.4;;;;-83
2022/06/18 10:47:08;;;;;;;;;;;;;;;37.17;29.8125;101782.5;;;;-84
2022/06/18 10:52:04;;;;;;;;;;;;;;;37.26;29.25879;101776;;;;-84
2022/06/18 10:56:58;;;;;;;;;;;;;;;37.31;29.71484;101774.2;;;;-85
2022/06/18 11:02:05;;;;;;;;;;;;;;;37.36;29.72949;101784.9;;;;-86
2022/06/18 11:06:48;;;;;;;3.3;1.1;;;;;;;;;;;;;-86
2022/06/18 11:07:06;;;;;;;;;;;;;;;37.44;30.0332;101787.2;;;;-84
2022/06/18 11:11:56;;;;;;;;;;;;;;;37.64;30.07031;101787.1;;;;-84
2022/06/18 11:16:59;;;;;;;;;;;;;;;37.78;29.87695;101792.4;;;;-85
2022/06/18 11:21:58;;;;;;;;;;;;;;;37.88;30.01465;101784;;;;-84
2022/06/18 11:26:57;;;;;;;;;;;;;;;38;30.22559;101783.2;;;;-85
2022/06/18 11:31:57;;;;;;;;;;;;;;;37.85;29.72559;101776;;;;-85
2022/06/18 11:36:53;;;;;;;2.1;1;;;;;;;;;;;;;-86
2022/06/18 11:37:07;;;;;;;;;;;;;;;37.76;29.91016;101788.1;;;;-86
2022/06/18 11:41:54;;;;;;;;;;;;;;;37.79;29.93652;101790.8;;;;-86
2022/06/18 11:46:53;;;;;;;;;;;;;;;37.84;29.71289;101788.4;;;;-84
2022/06/18 11:51:58;;;;;;;;;;;;;;;37.8;29.96094;101778.9;;;;-87
2022/06/18 11:57:08;;;;;;;;;;;;;;;37.78;29.99609;101783.7;;;;-85
2022/06/18 12:02:04;;;;;;;;;;;;;;;37.68;29.96582;101782.9;;;;-87
2022/06/18 12:06:56;;;;;;;;;;;;;;;37.66;30.08398;101798.7;;;;-85
2022/06/18 12:07:17;;;;;;;2.4;1;;;;;;;;;;;;;-85
2022/06/18 12:12:06;;;;;;;;;;;;;;;37.77;29.67285;101799.5;;;;-87
2022/06/18 12:16:55;;;;;;;;;;;;;;;37.91;29.80078;101794.2;;;;-84
2022/06/18 12:21:56;;;;;;;;;;;;;;;37.83;30.11816;101798.9;;;;-83
2022/06/18 12:27:01;;;;;;;;;;;;;;;37.65;30;101781.2;;;;-84
2022/06/18 12:32:04;;;;;;;;;;;;;;;37.55;29.76563;101770.3;;;;-85
2022/06/18 12:36:59;;;;;;;;;;;;;;;37.41;29.76855;101767.6;;;;-86
2022/06/18 12:37:21;;;;;;;2;1.1;;;;;;;;;;;;;-86
2022/06/18 12:41:55;;;;;;;;;;;;;;;37.09;29.85547;101759.4;;;;-84
2022/06/18 12:47:11;;;;;;;;;;;;;;;36.76;30.23828;101753.9;;;;-87
2022/06/18 12:52:11;;;;;;;;;;;;;;;36.48;30.58984;101781.4;;;;-87
2022/06/18 12:57:10;;;;;;;;;;;;;;;36.2;30.84473;101783.5;;;;-86
2022/06/18 13:01:56;;;;;;;;;;;;;;;35.86;31.02441;101778.6;;;;-87
2022/06/18 13:07:12;;;;;;;;;;;;;;;35.51;31.34473;101769.5;;;;-85
2022/06/18 13:12:27;;;;;;;;;;;;;;;35.22;31.44336;101756;;;;-87
2022/06/18 13:17:23;;;;;;;;;;;;;;;35.18;31.47559;101755;;;;-86
2022/06/18 13:32:27;;;;;;;;;;;;;;;35.6;30.93457;101759.5;;;;-85
2022/06/18 13:37:19;;;;;;;2.7;0.7;;;;;;;;;;;;;-84
2022/06/18 13:37:56;;;;;;;;;;;;;;;35.68;30.90527;101740.9;;;;-86
2022/06/18 13:42:24;;;;;;;;;;;;;;;35.83;30.58203;101735.8;;;;-86
2022/06/18 13:43:01;;;;;;;;;;;;;;;36.19;30.45117;101738.6;;;;-84
2022/06/18 13:47:14;;;;;;;;;;;;;;;35.87;30.41797;101751.7;;;;-86
2022/06/18 13:57:16;;;;;;;;;;;;;;;36.08;30.5752;101748.1;;;;-87
2022/06/18 14:02:27;;;;;;;;;;;;;;;36.21;30.21484;101752.9;;;;-85
2022/06/18 14:13:25;;;;;;;;;;;;;;;36.22;29.90625;101740;;;;-93
2022/06/18 14:22:28;;;;;;;;;;;;;;;36.03;29.86914;101740;;;;-86
2022/06/18 14:27:27;;;;;;;;;;;;;;;35.74;29.75586;101750.8;;;;-85
2022/06/18 14:38:07;;;;;;;;;;;;;;;35.92;29.35156;101759;;;;-83
2022/06/18 14:44:38;;;;;;;;;;;;;;;35.44;29.59375;101747.4;;;;-84
2022/06/18 14:50:36;;;;;;;;;;;;;;;35.21;29.74512;101739.7;;;;-87
2022/06/18 14:55:39;;;;;;;;;;;;;;;34.97;29.97949;101724.7;;;;-85
2022/06/18 15:00:28;;;;;;;;;;;;;;;34.61;30.34668;101708.5;;;;-84
2022/06/18 15:05:25;;;;;;;;;;;;;;;34.27;30.92871;101689.4;;;;-86
2022/06/18 15:07:58;;;;;;;;;;;;;;;;;;;;;
2022/06/18 15:10:23;;;;;;;;;;;;;;;33.98;31.13281;101671.1;;;;-86
2022/06/18 15:15:43;;;;;;;;;;;;;;;33.77;31.2373;101658.5;;;;-83
2022/06/18 15:20:51;;;;;;;;;;;;;;;33.55;31.45898;101644.8;;;;-86
2022/06/18 15:25:32;;;;;;;;;;;;;;;33.31;31.76172;101659;;;;-84
2022/06/18 15:30:33;;;;;;;;;;;;;;;33.14;32.02148;101671.1;;;;-84
2022/06/18 15:42:57;;;;;;;;;;;;;;;32.7;32.22656;101663.3;;;;-84
2022/06/18 15:47:59;;;;;;;;;;;;;;;32.4;32.34668;101680.9;;;;-84
2022/06/18 15:53:07;;;;;;;;;;;;;;;32.02;32.61426;101692.2;;;;-84
2022/06/18 15:57:55;;;;;;;;;;;;;;;31.71;32.87402;101659.9;;;;-84
2022/06/18 16:03:03;;;;;;;;;;;;;;;31.41;33.14648;101646.8;;;;-85
2022/06/18 16:07:56;;;;;;;8.1;2.9;;;;;;;;;;;;;-85
2022/06/18 16:08:29;;;;;;;;;;;;;;;31.13;33.19727;101660.5;;;;-84
2022/06/18 16:13:09;;;;;;;;;;;;;;;30.82;33.2793;101668.1;;;;-84
2022/06/18 16:18:03;;;;;;;;;;;;;;;30.68;33.34082;101658.9;;;;-84
2022/06/18 16:23:12;;;;;;;;;;;;;;;30.42;33.52051;101655.1;;;;-85
2022/06/18 16:35:45;;;;;;;;;;;;;;;30.33;33.15137;101698.4;;;;-84
2022/06/18 16:38:00;;;;;;;6.3;1.9;;;;;;;;;;;;;-84
2022/06/18 16:40:07;;;;;;;;;;;;;;;29.62;33.67188;101669.1;;;;-86
2022/06/18 16:44:45;;;;;;;;;;;;;;;29.33;33.97852;101658.8;;;;-85
2022/06/18 16:46:47;;;;;;;;;;;;;;;29.55;33.57324;101661.8;;;;-84
2022/06/18 16:49:26;;;;;;;;;;;;;;;29.29;33.85938;101646;;;;-84
2022/06/18 16:53:42;;;;;;;;;;;;;;;28.89;34.17969;101657.6;;;;-83
2022/06/18 16:58:50;;;;;;;;;;;;;;;28.73;34.36621;101658.1;;;;-82
2022/06/18 17:03:47;;;;;;;;;;;;;;;28.59;34.49609;101657.3;;;;-87
2022/06/18 17:04:15;;;;;;;;;;;;;;;28.9;34.29785;101653.1;;;;-84
2022/06/18 17:07:52;;;;;;;;;;;;;;;28.75;34.56641;101642.6;;;;-83
2022/06/18 17:08:38;;;;;;;6.7;1.8;;;;;;;;;;;;;-83
2022/06/18 17:15:59;;;;;;;;;;;;;;;28.49;34.96777;101625.4;;;;-86
2022/06/18 17:20:16;;;;;;;;;;;;;;;28.01;35.37305;101624;;;;-84
2022/06/18 17:35:14;;;;;;;;;;;;;;;27.5;36.40527;101609.2;;;;-83
2022/06/18 17:40:16;;;;;;;;;;;;;;;27.36;36.55664;101607.4;;;;-84
2022/06/18 17:55:25;;;;;;;;;;;;;;;26.84;37.02734;101578.4;;;;-84
2022/06/18 18:05:15;;;;;;;;;;;;;;;26.49;36.99707;101543.3;;;;-83
2022/06/18 18:08:25;;;;;;;8.6;2.4;;;;;;;;;;;;;-85
2022/06/18 18:10:09;;;;;;;;;;;;;;;26.3;37.14453;101529.2;;;;-84
2022/06/18 18:15:20;;;;;;;;;;;;;;;26.13;37.25879;101518.1;;;;-84
2022/06/18 18:20:17;;;;;;;;;;;;;;;25.93;36.98633;101502.8;;;;-85
2022/06/18 18:25:50;;;;;;;;;;;;;;;;;;;;;
2022/06/18 18:30:18;;;;;;;;;;;;;;;25.54;37.19824;101486.8;;;;-85
2022/06/18 18:35:14;;;;;;;;;;;;;;;25.4;37.25586;101482.4;;;;-85
2022/06/18 18:40:24;;;;;;;;;;;;;;;;;;;;;
2022/06/18 18:58:11;;;;;;;;;;;;;;;24.91;38.28027;101498.6;;;;-81
2022/06/18 18:59:06;;;;;;;;;;;;;;;24.95;38.24902;101496;;;;-84
2022/06/18 19:01:41;;;;;;;;;;;;;;;24.52;38.55957;101505.1;;;;-83
2022/06/18 19:08:19;;;;;;;4.4;1.4;;;;;;;;;;;;;-85
2022/06/18 19:38:24;;;;;;;;;;;;;;;23;40.62988;101512.4;;;;-82
2022/06/18 19:39:12;;;;;;;7.2;1.3;;;;;;;;;;;;;-82
2022/06/18 19:57:18;;;;;;;;;;;;;;;21.95;41.82129;101562.8;;;;-85
2022/06/18 20:08:52;;;;;;;;;;;;;;;21.84;41.41992;101517.8;;;;-84
2022/06/18 20:13:28;;;;;;;;;;;;;;;21.37;41.74316;101494;;;;-84
2022/06/18 20:18:22;;;;;;;;;;;;;;;21.24;41.76563;101483.6;;;;-82
2022/06/18 20:23:51;;;;;;;;;;;;;;;21.07;41.69336;101500.8;;;;-83
2022/06/18 20:28:22;;;;;;;;;;;;;;;20.85;41.63867;101477.7;;;;-82
2022/06/18 20:33:19;;;;;;;;;;;;;;;20.75;41.75391;101473.2;;;;-84
2022/06/18 20:38:20;;;;;;;;;;;;;;;20.57;42.10449;101459.8;;;;-82
2022/06/18 20:43:19;;;;;;;;;;;;;;;20.48;42.16309;101455.7;;;;-82
2022/06/18 20:48:38;;;;;;;;;;;;;;;20.36;42.34668;101443;;;;-82
2022/06/18 20:53:27;;;;;;;;;;;;;;;20.22;42.59668;101443.2;;;;-82
2022/06/18 20:58:31;;;;;;;;;;;;;;;20.11;42.73633;101451.3;;;;-85
2022/06/18 21:03:20;;;;;;;;;;;;;;;20.04;42.92383;101475.1;;;;-84
2022/06/18 21:08:18;;;;;;;;;;;;;;;19.98;43.03027;101493.6;;;;-84
2022/06/18 21:09:27;;;;;;;;;;;;;;;20.35;42.67773;101496.6;;;;-84
2022/06/18 21:13:34;;;;;;;;;;;;;;;19.87;43.25;101490.6;;;;-84
2022/06/18 21:18:29;;;;;;;;;;;;;;;19.78;43.52637;101488.2;;;;-83
2022/06/18 21:23:28;;;;;;;;;;;;;;;19.67;43.84668;101502.2;;;;-84
2022/06/18 21:28:30;;;;;;;;;;;;;;;19.59;43.99902;101514;;;;-85
2022/06/18 21:38:30;;;;;;;5.1;1.2;;;;;;;;;;;;;-83
2022/06/18 21:38:41;;;;;;;;;;;;;;;19.45;44.26953;101533.7;;;;-83
2022/06/18 21:43:33;;;;;;;;;;;;;;;19.38;44.58301;101552.3;;;;-84
2022/06/18 21:48:39;;;;;;;;;;;;;;;19.32;44.48633;101550.1;;;;-84
2022/06/18 21:53:34;;;;;;;;;;;;;;;19.32;44.50879;101548.1;;;;-82
2022/06/18 21:58:33;;;;;;;;;;;;;;;19.28;44.21777;101548;;;;-82
2022/06/18 22:03:27;;;;;;;;;;;;;;;19.19;44.30078;101542.5;;;;-81
2022/06/18 22:08:24;;;;;;;;;;;;;;;19.12;44.19141;101516.7;;;;-83
2022/06/18 22:08:37;;;;;;;4;1;;;;;;;;;;;;;-83
2022/06/18 22:18:41;;;;;;;;;;;;;;;18.93;44.11523;101502.6;;;;-85
2022/06/18 22:23:30;;;;;;;;;;;;;;;18.84;44.18652;101489.3;;;;-84
2022/06/18 22:28:25;;;;;;;;;;;;;;;18.75;44.30273;101456.4;;;;-83
2022/06/18 22:33:32;;;;;;;;;;;;;;;18.67;44.55566;101427.8;;;;-84
2022/06/18 22:38:31;;;;;;;;;;;;;;;18.62;44.62012;101407.3;;;;-84
2022/06/18 22:38:41;;;;;;;5.6;1.2;;;;;;;;;;;;;-84
2022/06/18 22:43:26;;;;;;;;;;;;;;;18.53;44.70215;101398.7;;;;-84
2022/06/18 22:48:27;;;;;;;;;;;;;;;18.47;44.90234;101381.3;;;;-84
2022/06/18 22:53:32;;;;;;;;;;;;;;;18.39;45.38281;101343;;;;-84
2022/06/18 22:58:26;;;;;;;;;;;;;;;18.31;45.46484;101302.7;;;;-83
2022/06/18 23:03:26;;;;;;;;;;;;;;;18.23;46.04785;101293.2;;;;-83
2022/06/18 23:08:25;;;;;;;;;;;;;;;18.15;46.29102;101270;;;;-85
2022/06/18 23:08:37;;;;;;;5;0.8;;;;;;;;;;;;;-85
2022/06/18 23:13:28;;;;;;;;;;;;;;;18.13;46.82324;101260.5;;;;-85
2022/06/18 23:18:33;;;;;;;;;;;;;;;18.12;46.49219;101252.2;;;;-84
2022/06/18 23:23:26;;;;;;;;;;;;;;;18.16;46.21094;101249.5;;;;-84
2022/06/18 23:28:26;;;;;;;;;;;;;;;18.14;46.16504;101236.6;;;;-85
2022/06/18 23:33:32;;;;;;;;;;;;;;;18.18;45.69043;101241.6;;;;-83
2022/06/18 23:38:25;;;;;;;;;;;;;;;18.16;45.4375;101256.7;;;;-83
2022/06/18 23:38:38;;;;;;;5.5;1;;;;;;;;;;;;;-83
2022/06/18 23:43:26;;;;;;;;;;;;;;;18.11;45.24023;101274.4;;;;-84
2022/06/18 23:48:26;;;;;;;;;;;;;;;18.11;45.14844;101288.3;;;;-84
2022/06/18 23:53:25;;;;;;;;;;;;;;;18.12;45.20703;101299;;;;-84
2022/06/18 23:58:24;;;;;;;;;;;;;;;18.06;45.31445;101294.1;;;;-85
